Time;durP1;ratioP1;P1;durP2;ratioP2;P2;SDS_P1;SDS_P2;PMS_P1;PMS_P2;Temp;Humidity;BMP_temperature;BMP_pressure;BME280_temperature;BME280_humidity;BME280_pressure;Samples;Min_cycle;Max_cycle;Signal;HPM_P1;HPM_P2
2022/04/16 12:05:51;;;;;;;5.50;3.10;;;;;;;19.28;37.09;92861.03;5036742;27;1325784;-79
2022/04/16 12:08:20;;;;;;;3.97;2.35;;;;;;;19.31;35.28;92833.69;5046333;28;20148;-80
2022/04/16 12:10:47;;;;;;;6.25;2.83;;;;;;;19.33;35.70;92844.59;5041451;28;20048;-79
2022/04/16 12:13:15;;;;;;;5.43;3.20;;;;;;;19.07;36.25;92816.94;5044429;28;20048;-80
2022/04/16 12:15:44;;;;;;;5.30;3.22;;;;;;;19.53;35.55;92843.63;5046152;28;20091;-80
2022/04/16 12:18:12;;;;;;;4.88;3.05;;;;;;;19.51;36.99;92835.31;5046350;28;20037;-80
2022/04/16 12:20:42;;;;;;;6.35;3.00;;;;;;;19.80;35.18;92831.91;5046307;28;20049;-80
2022/04/16 12:23:13;;;;;;;6.22;2.80;;;;;;;19.53;34.91;92835.06;5046450;28;20053;-80
2022/04/16 12:25:42;;;;;;;5.68;2.53;;;;;;;19.30;35.85;92834.72;5046058;28;20417;-80
2022/04/16 12:28:11;;;;;;;6.38;3.60;;;;;;;19.12;35.70;92826.50;5046243;28;20559;-80
2022/04/16 12:30:39;;;;;;;7.20;3.50;;;;;;;19.29;35.26;92836.53;5046238;28;20049;-80
2022/04/16 12:33:07;;;;;;;6.82;3.28;;;;;;;19.13;35.29;92840.31;5045977;28;20087;-80
2022/04/16 12:35:36;;;;;;;7.60;3.72;;;;;;;19.02;37.45;92829.94;5046251;28;20452;-80
2022/04/16 12:38:05;;;;;;;4.63;3.10;;;;;;;19.21;34.94;92837.16;5046065;28;20053;-81
2022/04/16 12:40:34;;;;;;;5.72;2.90;;;;;;;19.18;35.08;92837.69;5046162;28;20049;-81
2022/04/16 12:43:02;;;;;;;5.38;3.30;;;;;;;18.80;35.65;92835.56;5046002;28;20037;-81
2022/04/16 12:45:30;;;;;;;5.85;3.75;;;;;;;18.84;35.77;92820.94;5046151;28;20041;-80
2022/04/16 12:47:58;;;;;;;4.28;2.72;;;;;;;18.89;35.10;92807.91;5046070;28;20124;-81
2022/04/16 12:50:26;;;;;;;9.93;3.95;;;;;;;19.12;36.68;92828.34;5043150;28;20550;-81
2022/04/16 12:52:53;;;;;;;4.68;2.65;;;;;;;18.69;35.90;92799.22;5043393;28;20484;-81
2022/04/16 12:55:20;;;;;;;6.20;2.67;;;;;;;18.91;36.50;92803.22;5045663;28;20124;-80
2022/04/16 12:57:48;;;;;;;5.85;2.65;;;;;;;19.12;36.11;92821.31;5045939;28;20048;-80
2022/04/16 13:00:17;;;;;;;4.03;2.58;;;;;;;19.35;35.61;92801.59;5045461;28;20496;-81
2022/04/16 13:02:46;;;;;;;4.30;2.75;;;;;;;19.57;36.54;92815.19;5045402;28;20045;-81
2022/04/16 13:05:15;;;;;;;5.00;3.17;;;;;;;19.35;34.87;92798.22;5045361;28;20064;-81
2022/04/16 13:07:42;;;;;;;3.92;2.40;;;;;;;19.30;35.04;92806.09;5045482;28;20045;-81
2022/04/16 13:10:11;;;;;;;5.15;2.55;;;;;;;19.39;34.79;92799.22;5046265;28;20477;-80
2022/04/16 13:12:38;;;;;;;9.90;2.75;;;;;;;19.36;35.44;92805.00;5046058;28;20084;-81
2022/04/16 13:15:08;;;;;;;7.88;2.83;;;;;;;19.08;36.22;92787.22;5044657;28;20103;-80
2022/04/16 13:17:35;;;;;;;7.43;2.83;;;;;;;18.99;35.71;92799.28;5032016;28;20104;-80
2022/04/16 13:20:02;;;;;;;5.65;2.85;;;;;;;19.09;36.41;92795.84;5032240;28;20045;-80
2022/04/16 13:22:29;;;;;;;7.63;2.40;;;;;;;19.02;37.09;92774.53;5032285;28;20045;-81
2022/04/16 13:24:56;;;;;;;4.45;2.83;;;;;;;18.72;36.66;92781.50;5031615;28;20045;-81
2022/04/16 13:27:23;;;;;;;6.60;3.28;;;;;;;18.49;36.52;92789.72;5032139;28;20396;-81
2022/04/16 13:29:50;;;;;;;3.78;2.92;;;;;;;18.62;38.09;92796.13;5032350;28;20045;-81
2022/04/16 13:32:18;;;;;;;4.90;2.80;;;;;;;18.72;36.63;92790.09;5031464;28;20105;-81
2022/04/16 13:34:45;;;;;;;5.38;3.45;;;;;;;18.78;37.85;92793.41;5032169;28;20431;-80
2022/04/16 13:37:12;;;;;;;5.80;2.95;;;;;;;18.49;38.14;92794.91;5031952;28;20128;-81
2022/04/16 13:42:24;;;;;;;5.65;3.47;;;;;;;18.29;39.18;92783.56;5032172;28;20052;-81
2022/04/16 13:44:51;;;;;;;3.65;2.50;;;;;;;18.42;39.15;92787.41;5032384;28;20049;-81
2022/04/16 13:47:20;;;;;;;6.85;2.60;;;;;;;18.55;38.89;92788.63;5031934;28;20386;-81
2022/04/16 13:49:47;;;;;;;4.13;2.70;;;;;;;18.43;38.94;92781.16;5031853;28;20045;-81
2022/04/16 13:52:15;;;;;;;5.70;3.05;;;;;;;17.98;39.46;92759.50;5031332;28;20771;-81
2022/04/16 13:54:42;;;;;;;5.88;3.17;;;;;;;18.27;39.24;92771.88;5031548;28;20536;-80
2022/04/16 13:57:10;;;;;;;22.73;12.70;;;;;;;18.48;39.40;92800.38;5029781;28;20092;-81
2022/04/16 13:59:37;;;;;;;4.93;2.95;;;;;;;18.45;39.48;92780.88;5028872;28;20504;-81
2022/04/16 14:02:04;;;;;;;10.98;4.20;;;;;;;18.36;40.03;92774.69;5029765;28;20062;-80
2022/04/16 14:07:13;;;;;;;21.70;7.95;;;;;;;18.12;40.09;92762.34;5030749;28;20037;-81
2022/04/16 14:09:40;;;;;;;8.25;4.15;;;;;;;18.55;39.34;92786.03;5031132;28;20399;-80
2022/04/16 14:12:08;;;;;;;9.35;3.13;;;;;;;18.14;40.39;92763.63;5031306;28;20045;-80
2022/04/16 14:14:35;;;;;;;5.93;2.90;;;;;;;18.12;40.74;92781.31;5030917;28;20104;-80
2022/04/16 14:17:02;;;;;;;3.97;2.50;;;;;;;17.95;41.47;92771.22;5031212;28;20045;-80
2022/04/16 14:19:28;;;;;;;4.13;3.00;;;;;;;17.86;41.88;92765.78;5031048;28;20042;-80
2022/04/16 14:21:57;;;;;;;3.47;2.38;;;;;;;17.88;41.72;92783.72;5031009;28;20160;-80
2022/04/16 14:24:23;;;;;;;3.38;2.50;;;;;;;17.90;42.37;92790.22;5030987;28;20058;-80
2022/04/16 14:26:50;;;;;;;11.63;3.00;;;;;;;17.96;42.32;92770.16;5030572;28;20049;-80
2022/04/16 14:29:17;;;;;;;6.57;2.95;;;;;;;18.14;42.20;92787.03;5030133;28;20049;-80
2022/04/16 14:31:45;;;;;;;5.25;2.90;;;;;;;17.78;42.56;92758.56;5030613;28;20563;-80
2022/04/16 14:34:12;;;;;;;4.93;3.78;;;;;;;17.63;42.86;92780.16;5030727;28;20481;-81
2022/04/16 14:36:39;;;;;;;6.40;3.10;;;;;;;17.36;43.28;92783.84;5030826;28;20103;-81
2022/04/16 14:39:07;;;;;;;4.35;2.60;;;;;;;17.05;43.68;92747.53;5030874;28;20502;-80
2022/04/16 14:41:34;;;;;;;3.75;2.63;;;;;;;17.16;43.48;92767.25;5027492;28;20037;-80
2022/04/16 14:44:06;;;;;;;4.50;2.60;;;;;;;17.02;43.38;92769.56;5028817;28;20037;-80
2022/04/16 14:46:39;;;;;;;4.93;3.47;;;;;;;17.07;43.50;92774.78;5029446;28;20140;-81
2022/04/16 14:49:09;;;;;;;6.63;2.65;;;;;;;17.03;43.65;92780.78;5010704;28;20088;-80
2022/04/16 14:51:39;;;;;;;3.30;1.90;;;;;;;16.84;43.83;92786.44;5010281;28;20057;-81
2022/04/16 14:54:08;;;;;;;3.10;2.17;;;;;;;16.79;44.10;92765.66;5010787;28;20120;-80
2022/04/16 14:56:35;;;;;;;4.38;2.08;;;;;;;16.82;44.91;92776.31;5010282;28;20116;-80
2022/04/16 14:59:03;;;;;;;4.20;2.67;;;;;;;16.93;44.68;92790.06;5010588;28;20054;-80
2022/04/16 15:01:30;;;;;;;12.27;4.38;;;;;;;16.47;44.18;92738.19;5010570;28;20144;-81
2022/04/16 15:03:57;;;;;;;8.55;2.58;;;;;;;16.66;44.66;92775.53;5010238;28;20045;-79
2022/04/16 15:06:24;;;;;;;3.88;2.30;;;;;;;16.72;45.46;92778.13;5010577;28;20045;-80
2022/04/16 15:08:51;;;;;;;5.70;2.45;;;;;;;16.57;45.08;92774.47;5010709;28;20108;-80
2022/04/16 15:11:19;;;;;;;3.15;2.13;;;;;;;16.31;44.79;92777.03;5009961;28;20141;-80
2022/04/16 15:13:46;;;;;;;7.30;3.53;;;;;;;16.29;45.18;92766.13;5010600;28;20477;-80
2022/04/16 15:16:13;;;;;;;6.18;2.63;;;;;;;16.24;45.38;92776.50;5025918;28;20045;-79
2022/04/16 15:18:40;;;;;;;4.78;2.42;;;;;;;16.23;45.56;92770.53;5029449;28;20049;-80
2022/04/16 15:21:07;;;;;;;5.65;4.10;;;;;;;16.35;45.74;92783.28;5030436;28;20064;-79
2022/04/16 15:23:36;;;;;;;6.13;2.95;;;;;;;16.32;45.73;92782.97;5030088;28;20091;-80
2022/04/16 15:26:09;;;;;;;6.10;2.90;;;;;;;16.26;46.21;92780.38;5029630;28;20140;-81
2022/04/16 15:28:37;;;;;;;7.10;2.92;;;;;;;16.26;46.40;92774.41;5030163;28;20053;-81
2022/04/16 15:31:09;;;;;;;4.45;2.42;;;;;;;16.06;45.85;92772.56;5027783;28;20037;-82
2022/04/16 15:33:37;;;;;;;5.85;3.35;;;;;;;15.96;45.98;92757.75;5018850;28;20132;-80
2022/04/16 15:36:06;;;;;;;5.80;2.67;;;;;;;15.84;46.37;92768.28;5030471;28;20037;-80
2022/04/16 15:38:34;;;;;;;4.75;2.65;;;;;;;15.82;45.98;92778.13;5029265;28;20141;-80
2022/04/16 15:41:01;;;;;;;6.10;2.55;;;;;;;15.85;46.55;92783.59;5029952;28;20127;-80
2022/04/16 15:43:37;;;;;;;4.78;2.70;;;;;;;15.74;46.80;92782.00;5030032;28;20107;-79
2022/04/16 15:46:05;;;;;;;;;;;;;;;15.70;47.00;92792.03;5030396;28;20365;-81
2022/04/16 15:48:33;;;;;;;4.53;2.53;;;;;;;15.26;47.46;92735.38;5030735;28;19917;-80
2022/04/16 15:50:59;;;;;;;4.95;2.47;;;;;;;15.65;47.77;92794.63;5030712;28;20057;-81
2022/04/16 15:53:26;;;;;;;4.50;2.63;;;;;;;15.55;47.02;92792.75;5029797;28;20052;-81
2022/04/16 15:55:53;;;;;;;5.32;3.67;;;;;;;15.47;47.83;92790.66;5029482;28;20045;-81
2022/04/16 15:58:20;;;;;;;5.15;2.85;;;;;;;15.49;48.17;92788.56;5029718;28;20041;-81
2022/04/16 16:00:48;;;;;;;4.03;3.03;;;;;;;15.50;49.00;92775.38;5029749;28;20045;-81
2022/04/16 16:03:17;;;;;;;5.20;3.47;;;;;;;15.46;48.01;92795.03;5029586;28;20050;-80
2022/04/16 16:05:44;;;;;;;5.03;2.80;;;;;;;15.39;48.77;92802.25;5029235;28;20068;-80
2022/04/16 16:08:10;;;;;;;4.85;3.03;;;;;;;15.34;49.17;92797.03;5030103;28;20041;-78
2022/04/16 16:10:37;;;;;;;4.50;3.28;;;;;;;15.28;49.17;92798.03;5030229;28;20045;-78
2022/04/16 16:13:06;;;;;;;8.60;4.90;;;;;;;15.26;49.73;92797.47;5029925;28;20053;-78
2022/04/16 16:15:33;;;;;;;6.50;4.15;;;;;;;15.17;50.22;92802.34;5029032;28;20444;-78
2022/04/16 16:17:59;;;;;;;6.22;3.25;;;;;;;15.23;50.73;92803.97;5026707;28;21025;-78
2022/04/16 16:20:28;;;;;;;6.25;3.97;;;;;;;15.11;51.26;92806.72;5027619;28;20049;-78
2022/04/16 16:22:56;;;;;;;6.45;3.97;;;;;;;14.91;54.02;92795.16;4979344;28;20056;-82
2022/04/16 16:25:23;;;;;;;5.13;3.60;;;;;;;14.80;57.03;92814.22;5029509;28;20875;-81
2022/04/16 16:27:50;;;;;;;13.85;8.70;;;;;;;14.62;58.17;92802.41;5029066;28;20099;-81
2022/04/16 16:30:17;;;;;;;6.75;4.30;;;;;;;14.27;59.06;92805.16;5029089;28;20103;-82
2022/04/16 16:32:44;;;;;;;5.18;3.83;;;;;;;14.33;59.69;92818.91;5029273;28;20041;-79
2022/04/16 16:35:13;;;;;;;7.40;4.47;;;;;;;14.09;60.37;92795.94;5029082;28;20037;-79
2022/04/16 16:37:42;;;;;;;10.32;4.15;;;;;;;14.07;60.43;92816.03;5028825;28;20053;-79
2022/04/16 16:40:09;;;;;;;8.15;4.32;;;;;;;13.99;61.24;92831.97;5028881;28;20050;-79
2022/04/16 16:42:38;;;;;;;9.38;5.07;;;;;;;13.74;61.42;92825.44;5028735;28;20415;-79
2022/04/16 16:45:07;;;;;;;4.25;3.42;;;;;;;13.47;62.36;92802.91;5028689;28;20045;-79
2022/04/16 16:47:36;;;;;;;7.30;3.38;;;;;;;13.51;62.84;92829.78;5029029;28;20045;-79
2022/04/16 16:50:03;;;;;;;7.15;3.95;;;;;;;13.51;63.74;92844.50;5029329;28;20081;-80
2022/04/16 16:52:30;;;;;;;5.07;3.95;;;;;;;13.54;64.10;92846.59;5032120;28;20064;-79
2022/04/16 16:54:58;;;;;;;4.97;3.83;;;;;;;13.39;64.51;92842.75;5032517;28;20396;-79
2022/04/16 16:57:25;;;;;;;5.72;4.35;;;;;;;13.34;64.92;92858.94;5029511;28;20048;-80
2022/04/16 16:59:52;;;;;;;5.38;4.53;;;;;;;13.20;65.83;92857.69;5030078;28;20041;-79
2022/04/16 17:05:03;;;;;;;6.32;5.10;;;;;;;12.91;67.53;92858.53;5031885;28;20412;-79
2022/04/16 17:07:31;;;;;;;7.15;4.68;;;;;;;12.90;67.94;92875.00;5032421;28;20046;-80
2022/04/16 17:09:59;;;;;;;6.38;5.15;;;;;;;12.79;68.33;92879.22;5032078;28;20042;-80
2022/04/16 17:12:26;;;;;;;6.47;4.75;;;;;;;12.77;68.77;92878.66;5032103;28;20038;-80
2022/04/16 17:20:23;;;;;;;6.53;5.43;;;;;;;12.39;71.03;92873.09;5032173;28;20087;-79
2022/04/16 17:22:50;;;;;;;6.95;5.10;;;;;;;12.33;71.26;92876.56;5032355;28;20460;-79
2022/04/16 17:25:18;;;;;;;6.05;5.15;;;;;;;12.37;71.51;92892.34;5031522;28;20056;-80
2022/04/16 17:27:50;;;;;;;7.22;5.10;;;;;;;12.12;72.38;92877.94;5032140;28;20041;-80
2022/04/16 17:30:17;;;;;;;6.53;4.93;;;;;;;12.14;73.02;92883.66;5031665;28;20053;-79
2022/04/16 17:32:44;;;;;;;7.05;5.00;;;;;;;12.13;73.55;92888.03;5032115;28;20041;-78
2022/04/16 17:35:11;;;;;;;9.05;5.93;;;;;;;12.29;73.43;92909.72;5031766;28;20053;-79
2022/04/16 17:37:38;;;;;;;7.97;5.80;;;;;;;12.13;73.48;92905.28;5031184;28;20037;-78
2022/04/16 17:40:06;;;;;;;8.25;4.95;;;;;;;12.15;72.97;92922.06;5031506;28;20048;-79
2022/04/16 17:42:35;;;;;;;6.82;4.90;;;;;;;12.06;74.48;92927.78;5031879;28;20045;-79
2022/04/16 17:45:02;;;;;;;6.07;5.15;;;;;;;11.92;74.66;92914.31;5032498;28;20099;-78
2022/04/16 17:47:29;;;;;;;6.85;5.22;;;;;;;11.92;75.22;92927.97;5032238;28;20045;-79
2022/04/16 17:49:56;;;;;;;6.47;4.97;;;;;;;11.90;75.07;92938.50;5031544;28;20052;-79
2022/04/16 17:52:23;;;;;;;7.50;5.40;;;;;;;11.81;75.47;92929.53;5031381;28;20056;-80
2022/04/16 17:54:50;;;;;;;6.97;5.55;;;;;;;11.86;74.86;92942.53;5031505;28;20045;-79
2022/04/16 17:57:17;;;;;;;6.70;4.70;;;;;;;11.81;75.56;92952.69;5031100;28;20053;-79
2022/04/16 17:59:46;;;;;;;7.40;5.72;;;;;;;11.74;76.29;92952.03;5031642;28;20415;-79
2022/04/16 18:02:14;;;;;;;7.00;5.22;;;;;;;11.66;75.95;92939.50;5031203;28;20045;-79
2022/04/16 18:04:41;;;;;;;8.27;5.47;;;;;;;11.71;75.96;92948.13;5031192;28;20056;-79
2022/04/16 18:07:09;;;;;;;9.73;6.40;;;;;;;11.69;76.33;92957.84;5031095;28;20049;-79
2022/04/16 18:09:36;;;;;;;8.07;6.40;;;;;;;11.67;75.99;92954.69;5031380;28;20132;-79
2022/04/16 18:12:03;;;;;;;7.80;6.15;;;;;;;11.65;76.24;92956.72;5031212;28;20045;-80
2022/04/16 18:14:30;;;;;;;8.63;5.85;;;;;;;11.43;76.80;92952.09;5031377;28;20374;-79
2022/04/16 18:16:58;;;;;;;10.90;5.45;;;;;;;11.40;77.22;92969.75;5031028;28;20041;-77
2022/04/16 18:19:27;;;;;;;13.43;7.40;;;;;;;11.39;77.39;92960.50;5030968;28;20045;-77
2022/04/16 18:21:55;;;;;;;8.43;6.82;;;;;;;11.45;77.54;92972.47;5030718;28;20038;-77
2022/04/16 18:24:22;;;;;;;8.60;6.85;;;;;;;11.43;77.78;92970.09;5030397;28;20041;-77
2022/04/16 18:26:49;;;;;;;10.23;7.07;;;;;;;11.46;77.23;92972.25;5029701;28;20087;-77
2022/04/16 18:29:18;;;;;;;8.93;7.22;;;;;;;11.56;76.63;92976.84;5030117;28;20050;-77
2022/04/16 18:31:45;;;;;;;10.07;6.95;;;;;;;11.36;77.98;92974.56;5030518;28;20057;-77
2022/04/16 18:34:14;;;;;;;9.10;7.15;;;;;;;11.31;78.37;92985.53;5030376;28;20091;-77
2022/04/16 18:36:41;;;;;;;11.27;7.53;;;;;;;11.39;77.82;92983.63;5030526;28;20057;-77
2022/04/16 18:39:08;;;;;;;11.23;8.60;;;;;;;11.18;78.56;92981.34;5030774;28;20052;-77
2022/04/16 18:41:37;;;;;;;13.43;9.45;;;;;;;11.13;78.22;92983.78;5030331;28;20053;-77
2022/04/16 18:44:06;;;;;;;14.45;10.02;;;;;;;11.12;78.23;92997.66;5030426;28;20132;-77
2022/04/16 18:46:33;;;;;;;10.65;8.73;;;;;;;11.03;78.50;92997.16;5030272;28;20095;-77
2022/04/16 18:49:00;;;;;;;10.48;8.88;;;;;;;11.03;78.80;92991.22;5030010;28;20049;-77
2022/04/16 18:51:29;;;;;;;10.43;8.40;;;;;;;11.00;79.51;92992.44;5030252;28;20050;-77
2022/04/16 18:53:56;;;;;;;10.25;8.90;;;;;;;11.06;79.21;92991.56;5029888;28;20543;-77
2022/04/16 18:56:22;;;;;;;10.68;8.77;;;;;;;10.95;79.01;92990.53;5029962;28;20041;-77
2022/04/16 18:58:49;;;;;;;9.13;8.10;;;;;;;10.98;78.82;92999.59;5030137;28;20247;-78
2022/04/16 19:06:56;;;;;;;10.00;8.20;;;;;;;10.77;79.05;92982.84;5029456;28;20503;-77
2022/04/16 19:09:24;;;;;;;10.10;8.90;;;;;;;10.69;78.58;92974.44;5029539;28;20073;-77
2022/04/16 19:11:52;;;;;;;10.23;7.72;;;;;;;10.63;80.04;92982.19;5029589;28;20049;-77
2022/04/16 19:14:18;;;;;;;9.90;7.95;;;;;;;10.50;79.44;92968.53;5029314;28;20052;-77
2022/04/16 19:16:46;;;;;;;10.18;8.65;;;;;;;10.54;80.12;92976.56;5029133;28;20129;-77
2022/04/16 19:19:14;;;;;;;9.52;8.52;;;;;;;10.54;80.37;92986.84;5029367;28;20485;-77
2022/04/16 19:21:41;;;;;;;11.00;8.25;;;;;;;10.49;79.53;92984.13;5028876;28;20057;-77
2022/04/16 19:24:09;;;;;;;9.85;8.20;;;;;;;10.45;79.20;92983.03;5030003;28;20444;-77
2022/04/16 19:26:36;;;;;;;10.07;8.60;;;;;;;10.07;80.35;92938.53;5029833;28;20053;-77
2022/04/16 19:29:03;;;;;;;9.70;8.55;;;;;;;10.19;80.58;92965.09;5029797;28;20540;-76
2022/04/16 19:31:29;;;;;;;9.98;8.25;;;;;;;10.39;79.44;92976.91;5029618;28;20098;-77
2022/04/16 19:33:56;;;;;;;15.18;10.05;;;;;;;10.26;80.88;92965.78;5029541;28;20116;-77
2022/04/16 19:36:23;;;;;;;8.77;7.13;;;;;;;10.24;80.51;92967.75;5029924;28;20041;-77
2022/04/16 19:38:50;;;;;;;11.07;7.88;;;;;;;10.25;79.70;92971.13;5029647;28;20406;-79
2022/04/16 19:41:18;;;;;;;8.43;7.30;;;;;;;10.29;79.22;92975.63;5029579;28;20103;-78
2022/04/16 19:43:45;;;;;;;9.77;8.25;;;;;;;10.29;79.08;92980.75;5029424;28;20049;-79
2022/04/16 19:46:11;;;;;;;8.32;7.05;;;;;;;10.26;79.47;92982.97;5029301;28;20107;-78
2022/04/16 19:48:39;;;;;;;8.75;7.55;;;;;;;10.16;79.71;92979.13;5029509;28;20092;-78
2022/04/16 19:51:06;;;;;;;9.48;7.85;;;;;;;10.25;79.95;92989.91;5029524;28;20037;-78
2022/04/16 19:53:33;;;;;;;9.13;7.40;;;;;;;10.20;79.78;92988.94;5029117;28;20160;-79
2022/04/16 19:56:00;;;;;;;8.05;6.97;;;;;;;10.14;80.10;92983.66;5029500;28;20428;-78
2022/04/16 19:58:28;;;;;;;7.78;6.63;;;;;;;10.05;79.51;92971.31;5028792;28;20041;-79
2022/04/16 20:00:56;;;;;;;8.57;6.93;;;;;;;9.95;80.42;92956.41;5028721;28;20504;-80
2022/04/16 20:03:27;;;;;;;8.80;7.13;;;;;;;10.19;80.06;92982.25;5029266;28;20041;-80
2022/04/16 20:05:55;;;;;;;10.25;6.90;;;;;;;10.12;80.52;92982.31;5029006;28;20054;-80
2022/04/16 20:11:08;;;;;;;7.32;6.53;;;;;;;10.12;80.17;92985.66;5027489;28;20091;-80
2022/04/16 20:13:36;;;;;;;7.03;6.00;;;;;;;10.01;81.16;92989.69;5029143;28;20375;-80
2022/04/16 20:16:03;;;;;;;9.10;6.93;;;;;;;9.75;80.54;92941.97;5028907;28;20042;-79
2022/04/16 20:18:30;;;;;;;8.52;6.10;;;;;;;10.01;80.76;92987.13;5028705;28;20038;-79
2022/04/16 20:20:58;;;;;;;7.90;6.13;;;;;;;9.98;81.45;92992.69;5028063;28;20037;-79
2022/04/16 20:23:25;;;;;;;6.68;5.65;;;;;;;9.92;81.21;92985.06;5028234;28;20042;-80
2022/04/16 20:25:52;;;;;;;6.90;5.72;;;;;;;9.80;81.55;92972.13;5029196;28;20056;-80
2022/04/16 20:28:19;;;;;;;6.90;5.85;;;;;;;9.84;81.79;92971.50;5029596;28;20396;-79
2022/04/16 20:30:47;;;;;;;6.10;5.22;;;;;;;9.80;82.07;92980.63;5032109;28;20046;-79
2022/04/16 20:33:14;;;;;;;8.43;5.82;;;;;;;9.78;81.32;92967.22;5032401;28;20476;-80
2022/04/16 20:35:41;;;;;;;7.00;5.80;;;;;;;9.80;82.19;92965.22;5032512;28;20812;-79
2022/04/16 20:38:08;;;;;;;5.95;5.18;;;;;;;9.75;81.55;92970.19;5032383;28;20087;-79
2022/04/16 20:46:07;;;;;;;6.60;5.53;;;;;;;9.64;82.28;92953.72;5030475;28;20111;-79
2022/04/16 20:48:34;;;;;;;6.50;5.30;;;;;;;9.47;82.48;92944.00;5032080;28;20037;-79
2022/04/16 20:53:45;;;;;;;7.10;5.75;;;;;;;9.47;83.33;92944.00;5030216;28;20409;-79
2022/04/16 20:56:11;;;;;;;6.75;5.55;;;;;;;9.58;82.93;92967.38;5032509;28;20041;-78
2022/04/16 20:58:39;;;;;;;8.20;5.32;;;;;;;9.58;83.54;92970.72;5029304;28;20079;-79
2022/04/16 21:01:08;;;;;;;6.88;5.65;;;;;;;9.61;83.72;92974.66;5032353;28;20041;-79
2022/04/16 21:03:35;;;;;;;8.45;6.00;;;;;;;9.63;83.82;92982.94;5032574;28;20483;-79
2022/04/16 21:06:02;;;;;;;6.72;5.75;;;;;;;9.54;84.13;92973.91;5032362;28;20562;-79
2022/04/16 21:08:29;;;;;;;7.47;6.00;;;;;;;9.57;83.37;92978.63;5031760;28;20045;-80
2022/04/16 21:10:56;;;;;;;7.38;6.00;;;;;;;9.70;83.45;92983.66;5031536;28;20045;-80
2022/04/16 21:13:23;;;;;;;7.50;6.00;;;;;;;9.45;84.87;92965.69;5031853;28;20041;-79
2022/04/16 21:15:52;;;;;;;7.95;6.40;;;;;;;9.57;85.07;92983.75;5031581;28;20045;-80
2022/04/16 21:18:20;;;;;;;7.00;5.90;;;;;;;9.47;85.45;92982.44;5029524;28;20037;-79
2022/04/16 21:20:47;;;;;;;7.93;5.88;;;;;;;9.47;86.40;92986.78;5031842;28;20045;-79
2022/04/16 21:23:14;;;;;;;8.27;6.65;;;;;;;9.19;86.15;92946.94;5031933;28;20041;-79
2022/04/16 21:25:40;;;;;;;14.40;6.28;;;;;;;9.39;87.30;92982.69;5031417;28;20048;-79
2022/04/16 21:28:08;;;;;;;7.70;6.68;;;;;;;9.32;87.39;92972.50;5031959;28;20057;-80
2022/04/16 21:30:37;;;;;;;7.93;6.45;;;;;;;9.39;87.79;92984.47;5031762;28;20124;-80
2022/04/16 21:33:04;;;;;;;9.00;6.05;;;;;;;9.12;88.11;92944.41;5031617;28;20103;-80
2022/04/16 21:35:33;;;;;;;8.40;6.57;;;;;;;9.39;88.88;92980.13;5029481;28;20396;-79
2022/04/16 21:38:01;;;;;;;8.82;6.70;;;;;;;9.34;89.30;92978.19;5026999;28;20124;-80
2022/04/16 21:40:28;;;;;;;8.18;6.63;;;;;;;9.29;89.97;92978.03;5030897;28;20042;-80
2022/04/16 21:42:57;;;;;;;9.18;7.30;;;;;;;9.31;90.63;92981.16;5031140;28;20429;-80
2022/04/16 21:45:25;;;;;;;9.57;7.20;;;;;;;9.27;90.90;92974.88;5031267;28;20048;-79
2022/04/16 21:47:52;;;;;;;9.00;7.25;;;;;;;9.35;91.38;92977.19;5031582;28;20111;-79
2022/04/16 21:50:19;;;;;;;8.73;7.13;;;;;;;9.21;92.29;92970.56;5031561;28;20041;-80
2022/04/16 21:52:47;;;;;;;9.05;7.32;;;;;;;9.24;92.72;92970.16;5031097;28;20045;-79
2022/04/16 21:55:14;;;;;;;8.10;7.18;;;;;;;9.25;93.16;92981.97;5031315;28;20052;-79
2022/04/16 21:57:44;;;;;;;9.90;8.07;;;;;;;9.30;93.16;92989.84;5031151;28;20481;-80
2022/04/16 22:00:13;;;;;;;8.80;7.78;;;;;;;9.25;92.84;92976.84;5031444;28;20046;-79
2022/04/16 22:02:41;;;;;;;9.30;7.72;;;;;;;9.24;93.32;92972.72;5030735;28;20481;-80
2022/04/16 22:05:09;;;;;;;9.18;7.45;;;;;;;9.07;93.76;92960.41;5030947;28;20050;-79
2022/04/16 22:07:36;;;;;;;10.63;8.35;;;;;;;9.23;94.10;92982.19;5031420;28;20111;-80
2022/04/16 22:10:05;;;;;;;10.30;8.40;;;;;;;8.90;95.33;92933.72;5031323;28;20374;-80
2022/04/16 22:12:31;;;;;;;11.52;8.85;;;;;;;9.22;95.23;92969.59;5031028;28;20487;-80
2022/04/16 22:14:58;;;;;;;10.98;8.57;;;;;;;9.19;95.73;92965.66;5031114;28;20041;-80
2022/04/16 22:17:25;;;;;;;9.07;7.97;;;;;;;9.12;95.46;92954.66;5031267;28;20045;-80
2022/04/16 22:19:52;;;;;;;11.50;8.90;;;;;;;9.19;96.30;92967.44;5030992;28;20049;-80
2022/04/16 22:22:18;;;;;;;9.35;7.88;;;;;;;9.00;96.81;92943.50;5031062;28;20056;-79
2022/04/16 22:24:45;;;;;;;10.40;8.07;;;;;;;9.04;97.19;92948.03;5031390;28;20045;-80
2022/04/16 22:27:14;;;;;;;11.75;8.88;;;;;;;8.92;97.69;92932.50;5030938;28;20170;-79
2022/04/16 22:29:41;;;;;;;10.48;8.18;;;;;;;9.00;98.36;92959.66;5030816;28;20093;-79
2022/04/16 22:32:09;;;;;;;12.27;8.75;;;;;;;8.99;98.99;92965.00;5030649;28;20580;-80
2022/04/16 22:34:35;;;;;;;11.00;8.85;;;;;;;8.94;99.23;92943.34;5030590;28;20049;-79
2022/04/16 22:42:32;;;;;;;11.63;9.07;;;;;;;9.01;99.34;92965.56;5028744;28;20117;-79
2022/04/16 22:44:59;;;;;;;11.38;9.35;;;;;;;8.87;99.53;92945.16;5030467;28;20048;-79
2022/04/16 22:47:26;;;;;;;12.43;9.07;;;;;;;9.00;99.81;92962.22;5030599;28;20046;-79
2022/04/16 22:49:53;;;;;;;11.95;9.73;;;;;;;8.97;99.62;92954.94;5029442;28;20045;-79
2022/04/16 22:52:20;;;;;;;11.98;9.55;;;;;;;9.03;98.81;92953.34;5029768;28;20052;-79
2022/04/16 22:54:47;;;;;;;11.43;9.13;;;;;;;8.98;99.02;92938.56;5030357;28;20037;-79
2022/04/16 22:57:13;;;;;;;11.20;9.25;;;;;;;9.03;99.57;92961.03;5030529;28;20396;-79
2022/04/16 22:59:41;;;;;;;13.90;8.68;;;;;;;8.20;99.48;92841.25;5030308;28;20489;-79
2022/04/16 23:02:08;;;;;;;10.77;9.02;;;;;;;9.02;100.00;92964.59;5030396;28;20095;-79
2022/04/16 23:04:35;;;;;;;10.35;9.10;;;;;;;9.05;99.11;92959.84;5030283;28;20049;-79
2022/04/16 23:07:02;;;;;;;11.52;9.00;;;;;;;9.08;98.40;92954.28;5030424;28;20108;-79
2022/04/16 23:09:29;;;;;;;13.10;9.05;;;;;;;9.05;99.08;92961.59;5030212;28;20042;-80
2022/04/16 23:11:55;;;;;;;9.93;8.68;;;;;;;8.88;99.95;92948.50;5030099;28;20045;-79
2022/04/16 23:16:36;;;;;;;10.27;8.70;;;;;;;8.90;100.00;92954.19;5030315;28;20049;-80
2022/04/16 23:17:09;;;;;;;12.40;9.00;;;;;;;8.88;100.00;92954.41;5029870;28;20041;-80
2022/04/16 23:19:37;;;;;;;11.43;8.45;;;;;;;8.90;100.00;92947.31;5029654;28;20049;-79
2022/04/16 23:22:04;;;;;;;11.45;8.75;;;;;;;9.02;100.00;92964.59;5029783;28;20476;-79
2022/04/16 23:24:31;;;;;;;10.50;8.77;;;;;;;8.89;100.00;92950.84;5032035;28;20049;-80
2022/04/16 23:26:58;;;;;;;11.88;8.95;;;;;;;8.76;100.00;92938.91;5029790;28;20049;-79
2022/04/16 23:29:24;;;;;;;12.27;8.88;;;;;;;8.79;100.00;92947.94;5030060;28;20071;-79
2022/04/16 23:31:51;;;;;;;12.93;9.20;;;;;;;8.78;100.00;92947.16;5029568;28;20049;-79
2022/04/16 23:34:19;;;;;;;11.18;8.35;;;;;;;8.72;100.00;92940.31;5029814;28;20439;-79
2022/04/16 23:36:46;;;;;;;11.38;9.45;;;;;;;8.58;100.00;92928.53;5029567;28;20550;-79
2022/04/16 23:39:13;;;;;;;12.25;9.48;;;;;;;8.60;100.00;92929.91;5029552;28;20042;-79
2022/04/16 23:41:41;;;;;;;12.88;8.82;;;;;;;8.66;100.00;92941.13;5029321;28;20041;-79
2022/04/16 23:46:58;;;;;;;12.13;9.35;;;;;;;8.47;100.00;92930.72;5029804;28;20512;-79
2022/04/16 23:49:27;;;;;;;12.90;9.70;;;;;;;8.37;100.00;92920.91;5029487;28;20050;-79
2022/04/16 23:51:54;;;;;;;10.75;8.73;;;;;;;8.50;100.00;92920.09;5029274;28;20049;-79
2022/04/16 23:54:21;;;;;;;12.90;9.32;;;;;;;8.49;100.00;92917.72;5029519;28;20041;-79
2022/04/16 23:56:48;;;;;;;12.77;8.65;;;;;;;8.33;100.00;92883.16;5029653;28;20045;-79
2022/04/16 23:59:15;;;;;;;13.18;9.68;;;;;;;8.31;100.00;92883.34;5029625;28;20041;-79
